Time;durP1;ratioP1;P1;durP2;ratioP2;P2;SDS_P1;SDS_P2;PMS_P1;PMS_P2;Temp;Humidity;BMP_temperature;BMP_pressure;BME280_temperature;BME280_humidity;BME280_pressure;Samples;Min_cycle;Max_cycle;Signal;HPM_P1;HPM_P2
2023/08/02 00:00:57;;;;;;;22.52;7.32;;;27.00;92.10;;;;;;5091574;28;20047;-70
2023/08/02 00:04:01;;;;;;;16.23;6.95;;;26.90;92.20;;;;;;5091298;28;20042;-71
2023/08/02 00:07:05;;;;;;;14.82;7.40;;;26.80;92.30;;;;;;5091779;28;20059;-71
2023/08/02 00:10:09;;;;;;;17.48;7.18;;;26.90;92.10;;;;;;5091388;28;20051;-71
2023/08/02 00:13:13;;;;;;;18.63;6.97;;;26.80;92.10;;;;;;5090613;28;20499;-71
2023/08/02 00:16:17;;;;;;;15.90;7.05;;;26.70;91.70;;;;;;5090912;28;20047;-70
2023/08/02 00:19:23;;;;;;;26.15;8.30;;;26.50;92.30;;;;;;5090967;28;20051;-71
2023/08/02 00:22:27;;;;;;;17.02;7.20;;;26.50;92.40;;;;;;5090863;28;20043;-70
2023/08/02 00:25:31;;;;;;;18.25;7.75;;;26.10;92.50;;;;;;5090996;28;20546;-70
2023/08/02 00:28:35;;;;;;;15.65;6.90;;;25.80;92.70;;;;;;5090785;28;20054;-70
2023/08/02 00:31:39;;;;;;;15.45;7.38;;;25.80;92.90;;;;;;5089922;28;20051;-71
2023/08/02 00:34:46;;;;;;;19.50;7.82;;;25.90;92.90;;;;;;5090319;28;20046;-71
2023/08/02 00:37:50;;;;;;;17.85;7.55;;;26.00;92.80;;;;;;5090807;28;20055;-71
2023/08/02 00:41:01;;;;;;;21.50;7.20;;;26.00;92.80;;;;;;5089884;28;20210;-71
2023/08/02 00:44:05;;;;;;;;;;;26.00;92.90;;;;;;5091103;28;20502;-71
2023/08/02 00:47:09;;;;;;;16.67;7.30;;;26.00;92.80;;;;;;5089891;28;19908;-71
2023/08/02 00:50:13;;;;;;;29.80;7.78;;;26.10;92.80;;;;;;5090108;28;20059;-71
2023/08/02 00:53:18;;;;;;;17.17;7.55;;;26.10;92.60;;;;;;5089998;28;20112;-71
2023/08/02 00:56:22;;;;;;;19.65;6.57;;;26.10;92.60;;;;;;5089543;28;20047;-71
2023/08/02 00:59:26;;;;;;;15.85;6.78;;;26.20;92.50;;;;;;5090598;28;20043;-70
2023/08/02 01:02:30;;;;;;;15.30;6.75;;;26.10;92.40;;;;;;5090498;28;20047;-71
2023/08/02 01:05:40;;;;;;;16.83;6.97;;;26.10;92.40;;;;;;5089600;28;20051;-70
2023/08/02 01:08:49;;;;;;;17.30;7.30;;;26.00;92.50;;;;;;5094693;28;20047;-71
2023/08/02 01:12:07;;;;;;;25.45;8.27;;;25.80;92.80;;;;;;5093634;28;20051;-71
2023/08/02 01:15:14;;;;;;;13.38;7.03;;;25.60;92.90;;;;;;5094497;28;20047;-71
2023/08/02 01:18:18;;;;;;;19.45;6.53;;;25.60;93.30;;;;;;5093387;28;20055;-71
2023/08/02 01:21:22;;;;;;;18.00;7.45;;;25.40;93.30;;;;;;5094210;28;20039;-71
2023/08/02 01:24:32;;;;;;;23.17;7.20;;;25.40;93.70;;;;;;5093169;28;20043;-71
2023/08/02 01:27:48;;;;;;;20.30;7.05;;;25.30;93.60;;;;;;5094046;28;20043;-71
2023/08/02 01:30:53;;;;;;;18.90;7.82;;;25.40;93.80;;;;;;5093204;28;20050;-71
2023/08/02 01:33:59;;;;;;;20.17;7.43;;;25.50;93.60;;;;;;5094407;28;20035;-70
2023/08/02 01:37:03;;;;;;;18.05;6.47;;;25.60;93.20;;;;;;5093968;28;20052;-71
2023/08/02 01:40:10;;;;;;;21.05;6.35;;;25.40;93.40;;;;;;5093199;28;20047;-71
2023/08/02 01:43:14;;;;;;;12.60;6.45;;;25.20;93.90;;;;;;5094135;28;20047;-69
2023/08/02 01:46:18;;;;;;;20.08;6.55;;;25.20;93.90;;;;;;5094076;28;20047;-71
2023/08/02 01:49:22;;;;;;;15.60;7.55;;;25.10;94.10;;;;;;5093989;28;20047;-71
2023/08/02 01:52:27;;;;;;;15.93;6.47;;;25.20;94.10;;;;;;5093205;28;20102;-71
2023/08/02 01:55:31;;;;;;;18.80;7.22;;;25.20;94.00;;;;;;5093663;28;20065;-71
2023/08/02 01:58:35;;;;;;;15.48;6.28;;;25.40;93.90;;;;;;5093895;28;20071;-71
2023/08/02 02:01:39;;;;;;;16.38;7.53;;;25.50;93.80;;;;;;5092990;28;20043;-71
2023/08/02 02:04:43;;;;;;;18.63;6.72;;;25.50;93.60;;;;;;5092600;28;20043;-71
2023/08/02 02:07:47;;;;;;;22.00;7.68;;;25.60;93.60;;;;;;5093305;28;20047;-70
2023/08/02 02:10:54;;;;;;;15.48;7.03;;;25.50;93.70;;;;;;5092781;28;20039;-71
2023/08/02 02:13:58;;;;;;;16.75;6.82;;;25.60;93.60;;;;;;5092658;28;20055;-70
2023/08/02 02:17:02;;;;;;;18.58;6.43;;;25.60;93.50;;;;;;5093095;28;20439;-71
2023/08/02 02:20:06;;;;;;;20.33;8.02;;;25.60;93.60;;;;;;5093212;28;20035;-71
2023/08/02 02:23:11;;;;;;;16.35;6.85;;;25.50;93.90;;;;;;5093364;28;20039;-71
2023/08/02 02:26:15;;;;;;;14.10;7.40;;;25.60;93.80;;;;;;5093045;28;20051;-72
2023/08/02 02:29:18;;;;;;;18.73;6.57;;;25.50;93.80;;;;;;5092513;28;20506;-71
2023/08/02 02:32:22;;;;;;;16.13;6.65;;;25.40;94.00;;;;;;5092465;28;20047;-71
2023/08/02 02:35:27;;;;;;;13.85;6.93;;;25.40;94.00;;;;;;5093217;28;20063;-71
2023/08/02 02:38:31;;;;;;;18.92;7.03;;;25.50;94.00;;;;;;5092969;28;20059;-71
2023/08/02 02:41:35;;;;;;;20.90;6.53;;;25.50;93.90;;;;;;5093493;28;20047;-71
2023/08/02 02:44:43;;;;;;;17.67;7.07;;;25.50;94.00;;;;;;5093197;28;20122;-71
2023/08/02 02:47:47;;;;;;;15.27;7.38;;;25.30;94.30;;;;;;5093010;28;20043;-71
2023/08/02 02:50:50;;;;;;;18.17;7.22;;;25.30;94.50;;;;;;5092754;28;20043;-71
2023/08/02 02:53:54;;;;;;;16.02;7.20;;;25.40;94.50;;;;;;5092662;28;20051;-71
2023/08/02 02:56:59;;;;;;;16.05;7.45;;;25.40;94.30;;;;;;5092391;28;20050;-71
2023/08/02 03:00:05;;;;;;;17.10;6.82;;;25.40;94.40;;;;;;5092629;28;20054;-71
2023/08/02 03:03:09;;;;;;;13.70;7.32;;;25.50;94.30;;;;;;5092534;28;20035;-71
2023/08/02 03:06:12;;;;;;;20.52;7.45;;;25.50;94.10;;;;;;5092263;28;20523;-71
2023/08/02 03:09:16;;;;;;;14.70;7.05;;;25.40;94.30;;;;;;5092328;28;20051;-71
2023/08/02 03:12:22;;;;;;;17.23;7.53;;;25.40;94.20;;;;;;5092525;28;20043;-71
2023/08/02 03:15:26;;;;;;;14.77;7.35;;;25.40;94.30;;;;;;5091884;28;20047;-71
2023/08/02 03:18:30;;;;;;;20.13;7.82;;;25.30;94.50;;;;;;5091924;28;20051;-71
2023/08/02 03:21:33;;;;;;;15.57;7.68;;;25.30;94.50;;;;;;5091985;28;20116;-71
2023/08/02 03:24:37;;;;;;;20.33;7.32;;;25.10;94.50;;;;;;5092004;28;20043;-69
2023/08/02 03:27:42;;;;;;;19.02;7.25;;;24.90;95.20;;;;;;5092074;28;20051;-71
2023/08/02 03:30:46;;;;;;;16.52;6.90;;;24.80;95.50;;;;;;5090695;28;20418;-70
2023/08/02 03:33:50;;;;;;;15.07;6.95;;;24.80;95.40;;;;;;5091804;28;20054;-71
2023/08/02 03:36:54;;;;;;;19.30;7.57;;;24.90;95.20;;;;;;5091348;28;20043;-70
2023/08/02 03:39:58;;;;;;;18.88;7.72;;;24.90;95.10;;;;;;5091493;28;20055;-71
2023/08/02 03:43:02;;;;;;;18.05;7.35;;;24.80;95.30;;;;;;5091491;28;20043;-70
2023/08/02 03:46:06;;;;;;;21.55;7.55;;;24.70;95.70;;;;;;5091604;28;20047;-71
2023/08/02 03:49:10;;;;;;;19.30;7.57;;;24.70;95.60;;;;;;5091613;28;20055;-71
2023/08/02 03:52:14;;;;;;;15.10;7.15;;;24.80;95.60;;;;;;5091520;28;20043;-72
2023/08/02 03:55:18;;;;;;;17.30;7.18;;;24.80;95.50;;;;;;5091235;28;20039;-71
2023/08/02 03:58:22;;;;;;;16.75;7.28;;;24.80;95.40;;;;;;5091258;28;20102;-72
2023/08/02 04:01:26;;;;;;;20.27;6.80;;;24.90;95.40;;;;;;5091155;28;20045;-70
2023/08/02 04:04:30;;;;;;;18.40;6.65;;;24.80;95.30;;;;;;5091249;28;20400;-71
2023/08/02 04:07:34;;;;;;;22.77;7.22;;;24.80;95.60;;;;;;5091095;28;20255;-71
2023/08/02 04:10:38;;;;;;;23.38;6.75;;;24.70;95.70;;;;;;5091395;28;20106;-70
2023/08/02 04:13:41;;;;;;;16.77;7.15;;;24.50;96.20;;;;;;5091493;28;20039;-71
2023/08/02 04:16:45;;;;;;;16.15;7.25;;;24.50;96.40;;;;;;5091000;28;20051;-70
2023/08/02 04:19:49;;;;;;;22.15;7.60;;;24.50;96.30;;;;;;5090845;28;20047;-72
2023/08/02 04:22:53;;;;;;;22.30;7.97;;;24.50;96.20;;;;;;5091043;28;20039;-71
2023/08/02 04:25:57;;;;;;;13.73;6.80;;;24.50;96.20;;;;;;5090670;28;20514;-70
2023/08/02 04:29:02;;;;;;;25.42;8.25;;;24.60;96.20;;;;;;5090971;28;20043;-71
2023/08/02 04:32:06;;;;;;;52.30;10.18;;;24.70;96.50;;;;;;5090894;28;20043;-71
2023/08/02 04:35:10;;;;;;;45.95;11.50;;;24.70;96.20;;;;;;5089939;28;20063;-71
2023/08/02 04:38:14;;;;;;;18.15;7.90;;;24.70;96.30;;;;;;5090910;28;20050;-71
2023/08/02 04:41:18;;;;;;;23.55;8.45;;;24.80;96.20;;;;;;5093810;28;20051;-70
2023/08/02 04:44:22;;;;;;;27.80;10.88;;;24.90;96.00;;;;;;5097876;28;20055;-70
2023/08/02 04:47:26;;;;;;;25.20;10.55;;;24.90;95.70;;;;;;5097534;28;20043;-70
2023/08/02 04:50:33;;;;;;;23.40;10.73;;;24.90;96.00;;;;;;5097841;28;20043;-70
2023/08/02 04:53:37;;;;;;;30.70;10.35;;;24.80;96.30;;;;;;5097634;28;20043;-70
2023/08/02 04:56:41;;;;;;;27.63;10.65;;;24.90;96.10;;;;;;5097269;28;20088;-70
2023/08/02 04:59:44;;;;;;;28.00;10.18;;;24.90;96.00;;;;;;5097664;28;20434;-70
2023/08/02 05:02:48;;;;;;;26.10;9.38;;;25.00;96.10;;;;;;5097762;28;20503;-70
2023/08/02 05:06:00;;;;;;;32.05;9.32;;;25.00;96.10;;;;;;5097618;28;20047;-70
2023/08/02 05:09:04;;;;;;;28.77;9.02;;;25.10;95.90;;;;;;5097338;28;20039;-71
2023/08/02 05:12:09;;;;;;;23.23;8.82;;;25.20;95.60;;;;;;5097180;28;20047;-71
2023/08/02 05:15:12;;;;;;;17.75;8.32;;;25.20;96.30;;;;;;5097393;28;20047;-70
2023/08/02 05:18:16;;;;;;;28.75;9.50;;;26.10;95.80;;;;;;5097133;28;20055;-71
2023/08/02 05:21:20;;;;;;;28.98;9.43;;;27.10;93.70;;;;;;5096469;28;20035;-71
2023/08/02 05:24:24;;;;;;;26.27;8.68;;;27.90;92.20;;;;;;5097425;28;20047;-71
2023/08/02 05:27:28;;;;;;;27.73;8.60;;;28.10;92.10;;;;;;5097015;28;20051;-71
2023/08/02 05:30:33;;;;;;;20.75;7.18;;;28.20;91.70;;;;;;5097158;28;20403;-71
2023/08/02 05:33:37;;;;;;;19.63;7.47;;;28.90;91.20;;;;;;5097450;28;20047;-72
2023/08/02 05:36:41;;;;;;;18.85;8.15;;;29.70;90.10;;;;;;5096516;28;20399;-71
2023/08/02 05:39:45;;;;;;;27.65;8.25;;;30.30;88.30;;;;;;5097405;28;20398;-71
2023/08/02 05:42:49;;;;;;;28.75;7.70;;;31.00;86.60;;;;;;5096990;28;20228;-72
2023/08/02 05:45:53;;;;;;;24.17;7.40;;;31.60;85.40;;;;;;5097263;28;20047;-72
2023/08/02 05:48:57;;;;;;;28.15;8.55;;;31.70;84.60;;;;;;5097324;28;20043;-72
2023/08/02 05:52:01;;;;;;;25.10;8.82;;;31.20;85.50;;;;;;5096488;28;20071;-71
2023/08/02 05:55:05;;;;;;;25.27;7.80;;;30.40;87.00;;;;;;5093929;28;20039;-72
2023/08/02 05:58:09;;;;;;;26.20;7.25;;;29.80;89.00;;;;;;5093311;28;20055;-72
2023/08/02 06:01:13;;;;;;;30.15;8.55;;;29.80;89.80;;;;;;5091981;28;20039;-71
2023/08/02 06:04:20;;;;;;;26.13;7.38;;;29.90;88.70;;;;;;5092618;28;20381;-72
2023/08/02 06:07:24;;;;;;;29.48;6.93;;;29.90;88.90;;;;;;5092778;28;20047;-72
2023/08/02 06:10:28;;;;;;;16.77;7.00;;;29.80;88.50;;;;;;5092962;28;20043;-72
2023/08/02 06:13:32;;;;;;;17.80;6.80;;;29.90;87.50;;;;;;5092225;28;20051;-70
2023/08/02 06:16:36;;;;;;;19.98;6.28;;;30.00;87.40;;;;;;5093483;28;20043;-70
2023/08/02 06:19:40;;;;;;;14.85;6.03;;;29.90;87.80;;;;;;5092390;28;20504;-73
2023/08/02 06:22:44;;;;;;;16.38;6.55;;;29.90;87.50;;;;;;5092342;28;20035;-72
2023/08/02 06:25:48;;;;;;;14.15;6.95;;;30.00;86.80;;;;;;5093203;28;20058;-69
2023/08/02 06:28:51;;;;;;;15.15;7.05;;;29.90;86.70;;;;;;5093163;28;20047;-71
2023/08/02 06:31:55;;;;;;;20.65;7.68;;;29.60;87.20;;;;;;5093076;28;20043;-73
2023/08/02 06:34:59;;;;;;;19.17;8.13;;;29.50;87.90;;;;;;5093113;28;20047;-72
2023/08/02 06:38:03;;;;;;;22.38;8.07;;;29.30;88.60;;;;;;5093114;28;20075;-74
2023/08/02 06:41:07;;;;;;;23.02;7.38;;;29.30;89.40;;;;;;5092901;28;20054;-70
2023/08/02 06:44:11;;;;;;;15.98;6.80;;;29.70;88.00;;;;;;5092756;28;20055;-69
2023/08/02 06:47:14;;;;;;;15.93;6.68;;;30.30;85.90;;;;;;5092775;28;20051;-68
2023/08/02 06:50:19;;;;;;;15.23;5.93;;;31.00;84.20;;;;;;5092798;28;20043;-67
2023/08/02 06:53:22;;;;;;;16.33;5.88;;;32.00;81.90;;;;;;5092692;28;20522;-68
2023/08/02 06:56:26;;;;;;;19.30;6.20;;;31.90;81.10;;;;;;5092493;28;20248;-67
2023/08/02 06:59:30;;;;;;;19.05;5.78;;;32.10;80.40;;;;;;5092445;28;20051;-69
2023/08/02 07:02:34;;;;;;;22.13;6.07;;;32.20;78.30;;;;;;5092358;28;20047;-69
2023/08/02 07:05:38;;;;;;;15.70;5.63;;;31.60;79.40;;;;;;5092160;28;20428;-70
2023/08/02 07:08:42;;;;;;;14.50;5.32;;;31.10;79.20;;;;;;5091875;28;20051;-70
2023/08/02 07:11:46;;;;;;;23.45;6.18;;;30.70;80.30;;;;;;5092641;28;20051;-68
2023/08/02 07:14:50;;;;;;;69.88;7.70;;;30.30;82.40;;;;;;5092617;28;20043;-67
2023/08/02 07:17:55;;;;;;;33.10;6.50;;;30.10;82.60;;;;;;5092470;28;20071;-69
2023/08/02 07:21:06;;;;;;;14.57;5.70;;;30.00;82.60;;;;;;5092374;28;20051;-68
2023/08/02 07:24:10;;;;;;;17.98;5.85;;;30.00;82.60;;;;;;5092045;28;20043;-69
2023/08/02 07:27:14;;;;;;;14.32;5.35;;;30.00;82.70;;;;;;5091685;28;20497;-67
2023/08/02 07:30:18;;;;;;;12.73;5.00;;;29.90;82.50;;;;;;5092017;28;20494;-70
2023/08/02 07:33:22;;;;;;;14.55;5.43;;;29.90;82.90;;;;;;5091945;28;20039;-69
2023/08/02 07:36:26;;;;;;;20.40;5.47;;;29.90;83.50;;;;;;5091964;28;20039;-70
2023/08/02 07:39:30;;;;;;;15.48;5.38;;;30.00;83.60;;;;;;5091688;28;20051;-70
2023/08/02 07:42:33;;;;;;;14.35;6.10;;;30.00;83.40;;;;;;5091727;28;20035;-71
2023/08/02 07:45:38;;;;;;;23.95;6.28;;;30.00;84.10;;;;;;5091614;28;20043;-72
2023/08/02 07:48:41;;;;;;;15.48;5.70;;;30.10;84.20;;;;;;5091924;28;20039;-70
2023/08/02 07:51:45;;;;;;;18.45;5.32;;;30.20;83.30;;;;;;5091742;28;20043;-70
2023/08/02 07:54:52;;;;;;;14.65;5.30;;;30.20;82.80;;;;;;5091513;28;20046;-74
2023/08/02 07:57:57;;;;;;;17.20;6.68;;;30.20;83.00;;;;;;5091555;28;20047;-69
2023/08/02 08:01:08;;;;;;;14.05;5.20;;;30.10;82.90;;;;;;5091470;28;20364;-69
2023/08/02 08:04:12;;;;;;;10.30;4.82;;;30.20;82.70;;;;;;5091432;28;20054;-69
2023/08/02 08:07:16;;;;;;;13.10;4.53;;;30.50;82.90;;;;;;5091176;28;20054;-70
2023/08/02 08:10:20;;;;;;;9.95;3.83;;;30.70;81.20;;;;;;5091440;28;20278;-71
2023/08/02 08:13:24;;;;;;;19.85;4.85;;;30.90;80.60;;;;;;5090438;28;20047;-70
2023/08/02 08:16:28;;;;;;;22.20;5.05;;;31.00;79.60;;;;;;5090937;28;20042;-68
2023/08/02 08:19:33;;;;;;;11.98;4.28;;;31.10;79.60;;;;;;5090052;28;20058;-69
2023/08/02 08:22:36;;;;;;;11.38;3.85;;;31.40;78.80;;;;;;5091483;28;20043;-68
2023/08/02 08:25:40;;;;;;;9.20;3.92;;;31.60;77.70;;;;;;5091034;28;20368;-68
2023/08/02 08:28:45;;;;;;;11.52;3.83;;;31.80;76.40;;;;;;5091420;28;20051;-70
2023/08/02 08:31:49;;;;;;;15.77;3.97;;;31.90;76.40;;;;;;5091096;28;20051;-69
2023/08/02 08:34:54;;;;;;;17.27;4.43;;;32.10;75.50;;;;;;5091655;28;20055;-70
2023/08/02 08:37:58;;;;;;;12.65;4.18;;;32.10;75.40;;;;;;5089987;28;20439;-67
2023/08/02 08:41:02;;;;;;;34.72;5.82;;;32.10;75.50;;;;;;5090891;28;20058;-68
2023/08/02 08:44:06;;;;;;;18.77;4.20;;;32.10;75.40;;;;;;5091302;28;20058;-67
2023/08/02 08:47:11;;;;;;;9.60;3.28;;;32.20;75.20;;;;;;5091094;28;20039;-69
2023/08/02 08:50:16;;;;;;;10.80;4.30;;;32.20;75.30;;;;;;5091118;28;20050;-69
2023/08/02 08:53:33;;;;;;;13.95;4.30;;;32.30;75.90;;;;;;5090860;28;20043;-70
2023/08/02 08:56:40;;;;;;;9.10;3.75;;;32.30;75.50;;;;;;5090611;28;20031;-67
2023/08/02 08:59:45;;;;;;;9.38;3.95;;;32.30;75.50;;;;;;5090638;28;20404;-70
2023/08/02 09:02:49;;;;;;;17.02;4.47;;;32.20;76.50;;;;;;5090517;28;20487;-68
2023/08/02 09:05:58;;;;;;;9.88;4.35;;;32.20;76.00;;;;;;5089528;28;20416;-68
2023/08/02 09:09:03;;;;;;;11.20;4.10;;;32.10;76.00;;;;;;5089701;28;20038;-69
2023/08/02 09:12:07;;;;;;;14.32;4.18;;;32.10;76.10;;;;;;5091048;28;20051;-69
2023/08/02 09:15:13;;;;;;;11.93;4.10;;;32.20;75.60;;;;;;5090501;28;20043;-73
2023/08/02 09:18:17;;;;;;;25.73;4.95;;;32.20;75.30;;;;;;5089777;28;20542;-71
2023/08/02 09:21:22;;;;;;;12.05;4.07;;;32.10;76.30;;;;;;5090422;28;20043;-70
2023/08/02 09:24:34;;;;;;;12.90;3.38;;;32.20;76.80;;;;;;5090480;28;20039;-69
2023/08/02 09:27:38;;;;;;;12.95;3.97;;;32.20;76.20;;;;;;5090474;28;20047;-71
2023/08/02 09:30:42;;;;;;;10.07;3.65;;;32.20;76.10;;;;;;5093481;28;20050;-69
2023/08/02 09:33:52;;;;;;;16.88;3.83;;;32.20;75.50;;;;;;5094541;28;20039;-70
2023/08/02 09:36:55;;;;;;;9.93;3.92;;;32.20;74.80;;;;;;5094205;28;20391;-71
2023/08/02 09:40:00;;;;;;;14.23;4.15;;;32.20;75.00;;;;;;5094120;28;20400;-70
2023/08/02 09:43:08;;;;;;;10.35;3.95;;;32.20;74.50;;;;;;5094269;28;20047;-70
2023/08/02 09:46:35;;;;;;;15.25;3.28;;;32.30;75.00;;;;;;5093929;28;20058;-69
2023/08/02 09:49:39;;;;;;;14.82;3.80;;;32.40;74.40;;;;;;5093991;28;20047;-69
2023/08/02 09:52:43;;;;;;;9.15;3.65;;;32.40;74.50;;;;;;5094407;28;20043;-67
2023/08/02 09:55:47;;;;;;;12.95;3.92;;;32.40;74.20;;;;;;5093601;28;20035;-67
2023/08/02 09:58:55;;;;;;;15.00;3.75;;;32.50;74.70;;;;;;5093754;28;20055;-69
2023/08/02 10:02:00;;;;;;;7.28;3.13;;;32.50;74.70;;;;;;5093932;28;20039;-70
2023/08/02 10:05:12;;;;;;;16.23;3.60;;;32.60;75.20;;;;;;5093652;28;20042;-68
2023/08/02 10:08:17;;;;;;;17.38;3.78;;;32.60;73.60;;;;;;5093697;28;20047;-68
2023/08/02 10:11:23;;;;;;;6.53;2.80;;;32.60;72.70;;;;;;5093763;28;20063;-68
2023/08/02 10:14:30;;;;;;;12.60;4.10;;;32.60;72.90;;;;;;5092697;28;20047;-68
2023/08/02 10:17:35;;;;;;;13.55;3.47;;;32.60;72.60;;;;;;5093400;28;20419;-70
2023/08/02 10:20:40;;;;;;;9.30;2.85;;;32.60;71.90;;;;;;5093814;28;20058;-70
2023/08/02 10:23:45;;;;;;;13.05;3.25;;;32.70;72.00;;;;;;5093424;28;20508;-67
2023/08/02 10:26:49;;;;;;;12.93;3.13;;;32.80;72.10;;;;;;5092981;28;20063;-68
2023/08/02 10:29:54;;;;;;;11.55;3.40;;;32.90;71.70;;;;;;5093140;28;20506;-66
2023/08/02 10:33:18;;;;;;;16.00;4.07;;;32.90;71.60;;;;;;5093518;28;20042;-68
2023/08/02 10:36:23;;;;;;;15.15;3.47;;;32.80;71.90;;;;;;5093095;28;20526;-68
2023/08/02 10:39:51;;;;;;;7.95;3.42;;;32.90;72.50;;;;;;5092103;28;20546;-68
2023/08/02 10:43:07;;;;;;;9.52;3.47;;;32.90;72.80;;;;;;5092967;28;20424;-68
2023/08/02 10:46:16;;;;;;;13.30;3.65;;;32.80;72.00;;;;;;5093046;28;20043;-68
2023/08/02 10:49:20;;;;;;;7.10;2.92;;;32.80;72.30;;;;;;5092900;28;20047;-69
2023/08/02 10:52:30;;;;;;;9.77;3.03;;;32.70;73.40;;;;;;5092811;28;20042;-68
2023/08/02 10:55:33;;;;;;;7.68;3.15;;;32.70;73.00;;;;;;5092323;28;20043;-68
2023/08/02 10:58:47;;;;;;;8.20;2.95;;;32.60;73.70;;;;;;5092383;28;20039;-67
2023/08/02 11:02:08;;;;;;;19.10;4.25;;;32.60;73.40;;;;;;5092589;28;20059;-67
2023/08/02 11:05:19;;;;;;;11.80;2.55;;;32.50;73.00;;;;;;5092885;28;20400;-68
2023/08/02 11:08:22;;;;;;;8.15;2.70;;;32.50;71.30;;;;;;5092727;28;20055;-66
2023/08/02 11:11:29;;;;;;;15.52;3.72;;;32.50;72.30;;;;;;5091566;28;20035;-66
2023/08/02 11:14:33;;;;;;;9.30;3.05;;;32.50;72.80;;;;;;5091441;28;20047;-65
2023/08/02 11:17:37;;;;;;;23.45;4.28;;;32.40;72.90;;;;;;5091361;28;20054;-67
2023/08/02 11:20:41;;;;;;;19.92;4.57;;;32.90;74.20;;;;;;5091875;28;20047;-67
2023/08/02 11:23:49;;;;;;;11.93;3.25;;;34.20;71.70;;;;;;5091129;28;20047;-67
2023/08/02 11:27:00;;;;;;;31.20;5.32;;;34.90;69.40;;;;;;5089947;28;20055;-67
2023/08/02 11:30:07;;;;;;;10.57;2.95;;;35.30;69.00;;;;;;5088993;28;20055;-65
2023/08/02 11:33:11;;;;;;;19.23;3.60;;;35.30;69.00;;;;;;5090325;28;20043;-64
2023/08/02 11:36:16;;;;;;;20.33;3.70;;;35.60;69.40;;;;;;5091074;28;20039;-67
2023/08/02 11:39:21;;;;;;;13.48;3.40;;;35.70;68.00;;;;;;5090759;28;20071;-66
2023/08/02 11:42:25;;;;;;;20.13;3.60;;;35.90;67.10;;;;;;5090178;28;20066;-66
2023/08/02 11:45:31;;;;;;;21.20;4.65;;;36.10;66.30;;;;;;5091490;28;20047;-66
2023/08/02 11:48:35;;;;;;;13.35;3.30;;;36.10;66.00;;;;;;5091787;28;20118;-64
2023/08/02 11:51:40;;;;;;;13.50;3.97;;;35.90;65.80;;;;;;5090735;28;20094;-65
2023/08/02 11:54:44;;;;;;;9.75;3.00;;;36.20;65.50;;;;;;5091455;28;20186;-65
2023/08/02 11:57:48;;;;;;;14.98;4.10;;;36.30;65.70;;;;;;5091634;28;20041;-65
2023/08/02 12:00:52;;;;;;;10.73;3.05;;;36.10;65.50;;;;;;5091626;28;20047;-65
2023/08/02 12:03:57;;;;;;;15.93;3.90;;;36.30;66.20;;;;;;5091557;28;20515;-65
2023/08/02 12:07:02;;;;;;;13.65;3.17;;;36.60;66.80;;;;;;5091275;28;20046;-65
2023/08/02 12:10:06;;;;;;;17.73;3.25;;;36.90;66.50;;;;;;5091711;28;20051;-65
2023/08/02 12:13:14;;;;;;;9.40;3.55;;;36.70;66.70;;;;;;5091544;28;20047;-65
2023/08/02 12:16:20;;;;;;;11.73;3.40;;;36.40;67.20;;;;;;5091915;28;20471;-65
2023/08/02 12:19:40;;;;;;;16.25;3.38;;;36.40;67.00;;;;;;5091242;28;20416;-66
2023/08/02 12:22:48;;;;;;;16.95;3.20;;;36.50;66.80;;;;;;5091250;28;20039;-67
2023/08/02 12:25:52;;;;;;;17.90;3.83;;;36.10;66.60;;;;;;5090851;28;20047;-68
2023/08/02 12:28:56;;;;;;;12.52;3.20;;;35.90;66.90;;;;;;5090379;28;20039;-68
2023/08/02 12:32:00;;;;;;;40.63;6.68;;;36.10;67.00;;;;;;5091395;28;20368;-68
2023/08/02 12:35:06;;;;;;;19.25;3.85;;;36.50;66.80;;;;;;5091238;28;20139;-66
2023/08/02 12:38:10;;;;;;;25.05;4.10;;;36.90;66.50;;;;;;5091027;28;20047;-67
2023/08/02 12:41:14;;;;;;;11.32;3.42;;;36.60;66.70;;;;;;5091102;28;20047;-69
2023/08/02 12:44:18;;;;;;;13.05;3.45;;;35.70;68.00;;;;;;5090981;28;20051;-69
2023/08/02 12:47:22;;;;;;;20.98;4.45;;;35.10;69.00;;;;;;5090778;28;20289;-69
2023/08/02 12:50:26;;;;;;;12.85;3.28;;;34.50;69.70;;;;;;5091054;28;20527;-68
2023/08/02 12:53:29;;;;;;;13.63;3.03;;;34.20;70.70;;;;;;5090913;28;20047;-70
2023/08/02 12:56:33;;;;;;;13.55;3.97;;;33.80;71.30;;;;;;5091015;28;20043;-70
2023/08/02 12:59:37;;;;;;;12.32;3.63;;;33.50;72.00;;;;;;5090782;28;20071;-69
2023/08/02 13:02:41;;;;;;;12.85;3.75;;;33.40;72.50;;;;;;5093296;28;20035;-69
2023/08/02 13:05:45;;;;;;;14.35;4.00;;;33.30;72.70;;;;;;5093815;28;20043;-69
2023/08/02 13:08:49;;;;;;;16.08;3.40;;;33.20;72.60;;;;;;5094975;28;20067;-68
2023/08/02 13:11:53;;;;;;;13.68;3.90;;;33.00;73.20;;;;;;5094889;28;20058;-69
2023/08/02 13:14:57;;;;;;;9.02;3.60;;;32.90;74.80;;;;;;5094701;28;20066;-68
2023/08/02 13:18:02;;;;;;;11.45;3.55;;;32.80;74.80;;;;;;5094753;28;20071;-69
2023/08/02 13:21:06;;;;;;;14.38;3.70;;;32.70;74.50;;;;;;5094805;28;20051;-69
2023/08/02 13:24:10;;;;;;;12.88;3.78;;;32.60;75.10;;;;;;5094976;28;20051;-69
2023/08/02 13:27:14;;;;;;;16.30;4.15;;;32.50;75.10;;;;;;5093467;28;20055;-70
2023/08/02 13:30:18;;;;;;;12.57;4.65;;;32.50;75.20;;;;;;5094375;28;20400;-71
2023/08/02 13:33:22;;;;;;;16.67;4.15;;;32.40;76.10;;;;;;5094662;28;20055;-69
2023/08/02 13:36:26;;;;;;;13.90;3.80;;;32.30;75.70;;;;;;5094286;28;20379;-69
2023/08/02 13:39:30;;;;;;;18.77;3.53;;;32.30;76.00;;;;;;5093300;28;20063;-68
2023/08/02 13:42:35;;;;;;;22.88;5.97;;;32.20;76.30;;;;;;5094273;28;20047;-69
2023/08/02 13:45:40;;;;;;;19.23;4.22;;;32.20;76.00;;;;;;5093948;28;20059;-69
2023/08/02 13:48:44;;;;;;;17.42;3.88;;;32.10;76.20;;;;;;5093917;28;20475;-67
2023/08/02 13:51:48;;;;;;;8.18;3.55;;;32.10;76.30;;;;;;5094177;28;20058;-69
2023/08/02 13:54:51;;;;;;;109.55;10.23;;;32.00;76.50;;;;;;5094122;28;20047;-69
2023/08/02 13:57:56;;;;;;;11.77;3.58;;;32.00;77.00;;;;;;5094183;28;20048;-69
2023/08/02 14:01:00;;;;;;;12.43;3.67;;;32.00;77.30;;;;;;5093881;28;20051;-70
2023/08/02 14:04:04;;;;;;;21.73;4.88;;;31.90;76.90;;;;;;5092905;28;20051;-69
2023/08/02 14:07:08;;;;;;;108.07;12.02;;;31.90;76.20;;;;;;5093720;28;20048;-70
2023/08/02 14:10:13;;;;;;;15.80;3.78;;;31.90;76.10;;;;;;5093723;28;20047;-70
2023/08/02 14:13:17;;;;;;;11.57;3.00;;;31.80;77.10;;;;;;5092943;28;20043;-70
2023/08/02 14:16:21;;;;;;;15.75;4.18;;;31.80;76.00;;;;;;5093554;28;20054;-69
2023/08/02 14:19:25;;;;;;;28.90;5.22;;;31.80;77.10;;;;;;5093000;28;20399;-70
2023/08/02 14:22:31;;;;;;;13.75;3.40;;;31.70;76.70;;;;;;5093179;28;20044;-69
2023/08/02 14:25:34;;;;;;;24.40;4.43;;;31.70;76.20;;;;;;5092818;28;20115;-69
2023/08/02 14:28:38;;;;;;;23.08;5.07;;;31.70;76.70;;;;;;5093362;28;20047;-70
2023/08/02 14:31:42;;;;;;;18.38;4.72;;;31.60;77.30;;;;;;5093193;28;20506;-69
2023/08/02 14:34:46;;;;;;;16.38;3.85;;;31.60;76.50;;;;;;5093073;28;20043;-69
2023/08/02 14:37:50;;;;;;;20.40;4.45;;;31.50;76.40;;;;;;5093019;28;20034;-69
2023/08/02 14:40:54;;;;;;;14.65;4.40;;;31.50;77.10;;;;;;5093446;28;20051;-70
2023/08/02 14:43:58;;;;;;;15.68;4.20;;;31.40;77.40;;;;;;5093076;28;20039;-69
2023/08/02 14:47:02;;;;;;;17.58;4.25;;;31.40;77.50;;;;;;5091919;28;20054;-69
2023/08/02 14:50:06;;;;;;;19.70;4.78;;;31.40;77.10;;;;;;5093229;28;20039;-69
2023/08/02 14:53:10;;;;;;;20.02;4.53;;;31.40;77.70;;;;;;5091820;28;20050;-70
2023/08/02 14:56:14;;;;;;;18.42;4.55;;;32.30;77.20;;;;;;5092731;28;20498;-68
2023/08/02 14:59:18;;;;;;;15.05;4.03;;;33.40;74.30;;;;;;5092668;28;20039;-69
2023/08/02 15:02:22;;;;;;;19.73;4.30;;;33.80;73.50;;;;;;5092605;28;20047;-68
2023/08/02 15:05:26;;;;;;;22.70;4.88;;;34.10;73.10;;;;;;5092006;28;20111;-67
2023/08/02 15:08:30;;;;;;;11.57;4.47;;;34.60;72.50;;;;;;5092436;28;20044;-68
2023/08/02 15:11:33;;;;;;;42.03;5.85;;;34.90;71.20;;;;;;5092349;28;20051;-69
2023/08/02 15:14:37;;;;;;;24.10;4.80;;;34.90;70.70;;;;;;5092577;28;20031;-72
2023/08/02 15:17:43;;;;;;;23.40;4.70;;;34.60;70.20;;;;;;5092525;28;20054;-70
2023/08/02 15:20:47;;;;;;;58.95;7.65;;;34.40;71.40;;;;;;5092546;28;20051;-72
2023/08/02 15:23:51;;;;;;;15.65;4.43;;;34.60;70.20;;;;;;5092400;28;20062;-72
2023/08/02 15:26:58;;;;;;;13.18;4.72;;;34.80;69.90;;;;;;5091943;28;20075;-68
2023/08/02 15:30:03;;;;;;;16.52;4.47;;;34.70;70.20;;;;;;5092012;28;20038;-69
2023/08/02 15:33:07;;;;;;;27.20;4.65;;;34.60;70.60;;;;;;5092035;28;20039;-69
2023/08/02 15:36:11;;;;;;;33.17;5.35;;;34.50;70.40;;;;;;5091747;28;20043;-71
2023/08/02 15:39:15;;;;;;;24.50;4.85;;;34.60;69.50;;;;;;5091033;28;20058;-69
2023/08/02 15:42:23;;;;;;;18.80;4.30;;;34.40;68.70;;;;;;5092040;28;20059;-71
2023/08/02 15:45:29;;;;;;;29.95;5.82;;;34.20;69.40;;;;;;5091756;28;20051;-71
2023/08/02 15:48:33;;;;;;;14.70;4.10;;;34.10;70.00;;;;;;5091811;28;20047;-70
2023/08/02 15:51:36;;;;;;;16.08;4.32;;;34.10;70.00;;;;;;5091999;28;20043;-70